15.2 C
Madrid
septiembre, martes 28, 2021

Boeing 737-700 de Southwest se salió de la pista en el Aeropuerto Hollywood Burbank

AM para Aviaciondigit@l

Nuestros monogáficos

- Publicidad -spot_img

Los Ángeles-CA, USA. El vuelo WN278 de Southwest Airlines desde Oakland se salió de la pista al aterrizar en la pista 08 del aeropuerto Hollywood Burbank. El avión fue detenido por el Sistema de Detención de Materiales Dirigidos (EMAS) al final de la pista.

No se reportaron heridos entre los 112 pasajeros y cinco tripulantes.

Las condiciones meteorológicas en el momento del accidente (1704Z):
KBUR 061715Z 29008KT 1SM + RA BR FEW005 BKN013 OVC031 08/08 A2993 RMK AO2 MISHAP PISH26 P0026 T00830078KBUR 061653Z 28011KT 1 1 / 2SM + RA BR FEW004 OVC013 08/08 A2991 RMK AO2 SLP122 P0033 T00830083

 

 

 

 

- Publicidad -spot_img

Más artículos

DEJA UNA RESPUESTA

Por favor ingrese su comentario!
Por favor ingrese su nombre aquí

- Publicidad -spot_img

Todos los canales

Últimos artículos

Uso de cookies

Este sitio web utiliza cookies para que usted tenga la mejor experiencia de usuario. Si continúa navegando está dando su consentimiento para la aceptación de las mencionadas cookies y la aceptación de nuestra política de cookies, pinche el enlace para mayor información.plugin cookies

ACEPTAR
Aviso de cookies